Time;durP1;ratioP1;P1;durP2;ratioP2;P2;SDS_P1;SDS_P2;PMS_P1;PMS_P2;Temp;Humidity;BMP_temperature;BMP_pressure;BME280_temperature;BME280_humidity;BME280_pressure;Samples;Min_cycle;Max_cycle;Signal;HPM_P1;HPM_P2
2022/01/06 00:00:13;;;;;;;1.80;0.80;;;;;;;-1.96;100.00;98265.22;5090973;28;20521;-76
2022/01/06 00:02:40;;;;;;;2.05;1.05;;;;;;;-1.92;99.73;98266.31;5090799;28;20498;-76
2022/01/06 00:05:06;;;;;;;0.90;0.80;;;;;;;-1.90;100.00;98258.84;5090823;28;20038;-76
2022/01/06 00:07:32;;;;;;;1.00;0.90;;;;;;;-1.86;99.97;98259.94;5090815;28;20119;-76
2022/01/06 00:09:58;;;;;;;1.52;0.95;;;;;;;-1.88;100.00;98262.06;5090708;28;20158;-76
2022/01/06 00:12:32;;;;;;;2.33;1.10;;;;;;;-1.89;100.00;98257.78;5090775;28;20036;-77
2022/01/06 00:15:12;;;;;;;1.70;1.52;;;;;;;-1.89;100.00;98252.41;5089659;28;20044;-76
2022/01/06 00:17:45;;;;;;;3.22;1.40;;;;;;;-1.90;100.00;98248.91;5090611;28;20452;-77
2022/01/06 00:25:35;;;;;;;1.70;1.58;;;;;;;-1.92;100.00;98252.88;5090630;28;20047;-76
2022/01/06 00:28:01;;;;;;;3.55;2.00;;;;;;;-1.96;100.00;98254.47;5091019;28;20039;-76
2022/01/06 00:30:28;;;;;;;1.77;1.33;;;;;;;-1.99;100.00;98247.75;5090636;28;20444;-76
2022/01/06 00:32:54;;;;;;;4.57;1.70;;;;;;;-2.00;100.00;98245.31;5090701;28;20244;-76
2022/01/06 00:35:19;;;;;;;2.67;1.42;;;;;;;-1.98;100.00;98248.56;5091863;28;20036;-78
2022/01/06 00:37:45;;;;;;;3.88;1.80;;;;;;;-1.96;100.00;98241.03;5094551;28;20097;-76
2022/01/06 00:40:11;;;;;;;3.40;1.58;;;;;;;-1.93;100.00;98240.50;5094610;28;20040;-76
2022/01/06 00:42:38;;;;;;;2.10;1.45;;;;;;;-1.92;100.00;98242.13;5094157;28;20494;-76
2022/01/06 00:45:04;;;;;;;1.40;1.30;;;;;;;-1.91;100.00;98241.06;5094567;28;20174;-76
2022/01/06 00:47:30;;;;;;;2.50;1.88;;;;;;;-1.89;100.00;98236.25;5094371;28;20462;-76
2022/01/06 00:49:55;;;;;;;2.55;1.60;;;;;;;-1.87;100.00;98228.75;5094113;28;20048;-76
2022/01/06 00:52:21;;;;;;;2.95;1.92;;;;;;;-1.87;100.00;98234.94;5094158;28;20557;-76
2022/01/06 00:54:46;;;;;;;2.22;1.58;;;;;;;-1.85;100.00;98229.28;5076195;28;20131;-76
2022/01/06 00:57:12;;;;;;;3.28;1.35;;;;;;;-1.86;100.00;98231.19;5094327;28;20448;-76
2022/01/06 00:59:38;;;;;;;3.55;1.77;;;;;;;-1.89;100.00;98231.69;5093797;28;20038;-76
2022/01/06 01:02:03;;;;;;;2.15;1.55;;;;;;;-1.90;100.00;98231.97;5094097;28;20044;-76
2022/01/06 01:04:29;;;;;;;1.77;1.67;;;;;;;-1.90;100.00;98230.09;5093788;28;20039;-76
2022/01/06 01:06:54;;;;;;;2.20;1.42;;;;;;;-1.89;100.00;98220.13;5093773;28;20032;-76
2022/01/06 01:09:20;;;;;;;2.08;1.85;;;;;;;-1.87;100.00;98221.50;5093772;28;20081;-76
2022/01/06 01:11:45;;;;;;;1.58;1.42;;;;;;;-1.86;100.00;98223.13;5093607;28;20032;-76
2022/01/06 01:17:03;;;;;;;3.92;1.45;;;;;;;-1.82;100.00;98226.09;5062392;28;20048;-76
2022/01/06 01:19:31;;;;;;;2.40;1.98;;;;;;;-1.80;100.00;98221.25;5075249;28;20108;-76
2022/01/06 01:21:58;;;;;;;2.10;1.67;;;;;;;-1.78;100.00;98211.06;5093550;28;20044;-76
2022/01/06 01:24:24;;;;;;;2.60;1.50;;;;;;;-1.76;100.00;98208.09;5075468;28;20040;-76
2022/01/06 01:26:50;;;;;;;1.98;1.50;;;;;;;-1.78;100.00;98221.81;5093536;28;20043;-76
2022/01/06 01:29:18;;;;;;;2.30;1.60;;;;;;;-1.77;100.00;98222.59;5093295;28;20036;-75
2022/01/06 01:31:50;;;;;;;1.77;1.40;;;;;;;-1.75;100.00;98226.66;5075150;28;20043;-76
2022/01/06 01:34:22;;;;;;;3.97;2.00;;;;;;;-1.75;100.00;98221.28;5093324;28;20032;-76
2022/01/06 01:36:48;;;;;;;3.10;1.70;;;;;;;-1.74;100.00;98222.09;5093168;28;20039;-76
2022/01/06 01:39:13;;;;;;;2.45;1.70;;;;;;;-1.76;100.00;98214.28;5075081;28;20051;-75
2022/01/06 01:41:39;;;;;;;2.70;1.60;;;;;;;-1.78;100.00;98221.81;5093226;28;20043;-76
2022/01/06 01:44:12;;;;;;;1.50;1.30;;;;;;;-1.84;100.00;98217.47;5092233;28;20138;-76
2022/01/06 01:46:43;;;;;;;4.13;1.40;;;;;;;-1.88;100.00;98221.75;5092319;28;20040;-76
2022/01/06 01:51:34;;;;;;;1.30;1.05;;;;;;;-1.87;100.00;98218.00;5093057;28;20176;-76
2022/01/06 01:54:01;;;;;;;2.67;1.52;;;;;;;-1.86;100.00;98214.25;5093460;28;20048;-76
2022/01/06 01:56:26;;;;;;;2.08;1.60;;;;;;;-1.83;100.00;98213.72;5092802;28;20529;-76
2022/01/06 01:58:52;;;;;;;1.52;1.25;;;;;;;-1.83;100.00;98222.59;5092792;28;20040;-76
2022/01/06 02:01:17;;;;;;;3.28;1.38;;;;;;;-1.81;100.00;98214.25;5092728;28;20529;-76
2022/01/06 02:03:43;;;;;;;1.98;1.33;;;;;;;-1.78;100.00;98221.00;5092774;28;20047;-77
2022/01/06 02:06:08;;;;;;;1.27;1.00;;;;;;;-1.80;100.00;98221.25;5092679;28;20032;-76
2022/01/06 02:08:34;;;;;;;2.35;1.67;;;;;;;-1.79;100.00;98214.00;5092527;28;20032;-76
2022/01/06 02:11:00;;;;;;;4.35;1.95;;;;;;;-1.79;100.00;98211.31;5092456;28;20561;-76
2022/01/06 02:13:28;;;;;;;5.30;2.53;;;;;;;-1.79;100.00;98208.63;5092866;28;20132;-76
2022/01/06 02:15:56;;;;;;;2.55;1.92;;;;;;;-1.81;100.00;98211.56;5092538;28;20043;-76
2022/01/06 02:18:21;;;;;;;2.78;1.80;;;;;;;-1.79;100.00;98205.94;5092453;28;20404;-76
2022/01/06 02:20:47;;;;;;;5.80;2.90;;;;;;;-1.79;100.00;98212.13;5092149;28;20048;-76
2022/01/06 02:23:12;;;;;;;8.75;3.15;;;;;;;-1.79;100.00;98208.63;5092329;28;20127;-76
2022/01/06 02:25:38;;;;;;;3.47;2.30;;;;;;;-1.80;100.00;98197.06;5092180;28;20054;-76
2022/01/06 02:28:04;;;;;;;3.25;1.80;;;;;;;-1.80;100.00;98197.06;5092234;28;20036;-76
2022/01/06 02:30:35;;;;;;;3.78;1.98;;;;;;;-1.79;100.00;98198.69;5091966;28;20505;-76
2022/01/06 02:33:03;;;;;;;4.15;1.65;;;;;;;-1.79;100.00;98198.69;5092425;28;20136;-76
2022/01/06 02:35:29;;;;;;;3.33;1.50;;;;;;;-1.79;100.00;98197.88;5091981;28;20151;-76
2022/01/06 02:37:55;;;;;;;2.40;1.73;;;;;;;-1.75;100.00;98204.34;5092408;28;20071;-76
2022/01/06 02:40:23;;;;;;;3.65;2.03;;;;;;;-1.71;100.00;98203.56;5092343;28;20044;-76
2022/01/06 02:42:52;;;;;;;1.35;1.25;;;;;;;-1.69;100.00;98208.69;5091955;28;20032;-76
2022/01/06 02:45:23;;;;;;;1.08;1.00;;;;;;;-1.70;100.00;98197.13;5091933;28;20502;-76
2022/01/06 02:47:48;;;;;;;1.88;1.48;;;;;;;-1.69;100.00;98204.13;5091754;28;20108;-76
2022/01/06 02:50:15;;;;;;;1.90;1.42;;;;;;;-1.70;100.00;98207.06;5091858;28;20501;-76
2022/01/06 02:52:41;;;;;;;2.10;1.48;;;;;;;-1.69;100.00;98203.31;5091886;28;20075;-76
2022/01/06 02:55:08;;;;;;;3.95;1.73;;;;;;;-1.72;100.00;98201.97;5073816;28;20075;-76
2022/01/06 02:57:34;;;;;;;4.53;1.80;;;;;;;-1.78;100.00;98205.66;5091507;28;20046;-76
2022/01/06 03:00:00;;;;;;;1.40;1.30;;;;;;;-1.81;100.00;98200.81;5089672;28;20119;-76
2022/01/06 03:02:26;;;;;;;4.57;1.67;;;;;;;-1.83;100.00;98203.78;5091708;28;20089;-76
2022/01/06 03:04:52;;;;;;;3.08;1.52;;;;;;;-1.90;100.00;98194.34;5091462;28;20035;-76
2022/01/06 03:07:18;;;;;;;3.28;1.70;;;;;;;-1.98;100.00;98195.63;5091830;28;20040;-76
2022/01/06 03:09:50;;;;;;;1.77;1.40;;;;;;;-2.01;100.00;98198.81;5091214;28;20044;-76
2022/01/06 03:12:49;;;;;;;3.28;1.67;;;;;;;-2.01;100.00;98193.47;5091586;28;20040;-76
2022/01/06 03:15:10;;;;;;;2.60;1.70;;;;;;;-2.02;100.00;98199.91;5087501;28;20044;-76
2022/01/06 03:17:41;;;;;;;5.57;2.03;;;;;;;-2.04;100.00;98195.84;5091300;28;20127;-76
2022/01/06 03:20:09;;;;;;;2.58;1.92;;;;;;;-2.07;100.00;98201.75;5091314;28;20078;-76
2022/01/06 03:22:35;;;;;;;3.50;1.60;;;;;;;-2.07;100.00;98212.50;5091419;28;20118;-76
2022/01/06 03:25:00;;;;;;;4.95;1.92;;;;;;;-2.09;100.00;98198.50;5091233;28;20479;-76
2022/01/06 03:27:26;;;;;;;4.90;1.70;;;;;;;-2.11;99.93;98198.75;5091310;28;20040;-75
2022/01/06 03:29:52;;;;;;;3.45;1.90;;;;;;;-2.11;99.87;98198.75;5091441;28;20048;-76
2022/01/06 03:32:18;;;;;;;4.15;1.73;;;;;;;-2.06;100.00;98204.19;5091277;28;20036;-76
2022/01/06 03:34:45;;;;;;;4.72;1.83;;;;;;;-2.03;99.67;98200.16;5091351;28;20108;-76
2022/01/06 03:37:11;;;;;;;3.88;2.10;;;;;;;-2.03;99.91;98208.22;5091163;28;20502;-77
2022/01/06 03:39:38;;;;;;;3.72;1.77;;;;;;;-2.02;99.85;98199.09;5091246;28;20051;-76
2022/01/06 03:42:04;;;;;;;4.75;2.25;;;;;;;-1.97;99.61;98209.88;5091202;28;20036;-76
2022/01/06 03:44:30;;;;;;;2.58;1.90;;;;;;;-1.93;100.00;98209.06;5091037;28;20043;-76
2022/01/06 03:46:55;;;;;;;3.47;1.98;;;;;;;-1.94;99.73;98204.78;5091157;28;20396;-76
2022/01/06 03:49:21;;;;;;;3.92;1.80;;;;;;;-1.94;99.80;98202.09;5091118;28;20524;-76
2022/01/06 03:51:47;;;;;;;4.22;2.20;;;;;;;-1.94;100.00;98195.91;5090877;28;20498;-76
2022/01/06 03:54:13;;;;;;;3.90;2.08;;;;;;;-1.96;99.96;98203.41;5090839;28;20039;-76
2022/01/06 03:56:38;;;;;;;4.18;2.03;;;;;;;-1.96;100.00;98206.91;5072769;28;20044;-76
2022/01/06 03:59:05;;;;;;;4.28;2.20;;;;;;;-1.95;99.86;98199.66;5090777;28;20525;-76
2022/01/06 04:01:32;;;;;;;5.32;3.10;;;;;;;-1.98;100.00;98194.81;5090847;28;20035;-76
2022/01/06 04:03:57;;;;;;;6.05;2.00;;;;;;;-2.02;99.84;98199.09;5090678;28;20456;-76
2022/01/06 04:06:23;;;;;;;3.80;1.90;;;;;;;-2.04;99.57;98195.84;5072730;28;20037;-76
2022/01/06 04:08:48;;;;;;;2.58;1.48;;;;;;;-2.05;99.86;98188.88;5090586;28;20048;-77
2022/01/06 04:11:14;;;;;;;1.42;1.15;;;;;;;-2.05;99.93;98195.06;5093508;28;20040;-76
2022/01/06 04:13:40;;;;;;;1.45;0.88;;;;;;;-2.05;99.89;98196.94;5094649;28;20066;-76
2022/01/06 04:16:09;;;;;;;2.40;1.48;;;;;;;-2.05;99.60;98188.88;5076951;28;20123;-76
2022/01/06 04:18:35;;;;;;;2.88;2.00;;;;;;;-2.06;99.65;98201.50;5094692;28;20044;-76
2022/01/06 04:21:00;;;;;;;2.65;1.73;;;;;;;-2.07;99.28;98204.44;5094512;28;20051;-76
2022/01/06 04:23:26;;;;;;;2.60;1.58;;;;;;;-2.07;99.82;98199.06;5094926;28;20153;-76
2022/01/06 04:25:52;;;;;;;4.07;2.20;;;;;;;-2.07;99.71;98204.44;5094679;28;20486;-76
2022/01/06 04:28:17;;;;;;;2.20;1.70;;;;;;;-2.07;99.33;98207.13;5094413;28;20556;-76
2022/01/06 04:30:43;;;;;;;3.67;1.90;;;;;;;-2.10;99.44;98191.50;5094488;28;20048;-76
2022/01/06 04:33:08;;;;;;;3.40;1.58;;;;;;;-2.11;99.41;98177.25;5094303;28;20051;-76
2022/01/06 04:35:34;;;;;;;1.90;1.48;;;;;;;-2.14;99.09;98181.28;5094329;28;20516;-77
2022/01/06 04:38:00;;;;;;;6.30;2.33;;;;;;;-2.14;99.77;98185.84;5094795;28;20394;-76
2022/01/06 04:40:25;;;;;;;1.27;1.10;;;;;;;-2.15;99.44;98178.84;5094206;28;20091;-76
2022/01/06 04:42:51;;;;;;;3.58;2.38;;;;;;;-2.16;99.27;98180.72;5094333;28;20166;-76
2022/01/06 04:45:17;;;;;;;3.22;1.45;;;;;;;-2.12;98.71;98181.81;5093309;28;20066;-76
2022/01/06 04:47:42;;;;;;;3.75;2.53;;;;;;;-2.08;98.63;98178.63;5094035;28;20494;-76
2022/01/06 04:50:08;;;;;;;7.13;1.88;;;;;;;-2.09;99.06;98182.38;5094020;28;20040;-76
2022/01/06 04:52:34;;;;;;;4.53;2.55;;;;;;;-2.10;99.05;98186.94;5094415;28;20040;-76
2022/01/06 04:54:59;;;;;;;3.42;1.92;;;;;;;-2.08;99.12;98183.97;5093942;28;20039;-76
2022/01/06 04:57:25;;;;;;;4.38;2.30;;;;;;;-2.07;99.29;98178.38;5093956;28;20036;-76
2022/01/06 04:59:50;;;;;;;4.72;1.73;;;;;;;-2.11;98.94;98179.94;5094020;28;20048;-76
2022/01/06 05:02:16;;;;;;;3.25;2.08;;;;;;;-2.11;98.99;98179.94;5093772;28;20044;-76
2022/01/06 05:04:42;;;;;;;5.00;2.38;;;;;;;-2.13;99.14;98182.09;5093628;28;20105;-76
2022/01/06 05:07:07;;;;;;;4.85;2.35;;;;;;;-2.15;98.51;98184.22;5094054;28;20114;-76
2022/01/06 05:09:33;;;;;;;2.92;2.03;;;;;;;-2.16;99.02;98166.50;5093805;28;20039;-76
2022/01/06 05:11:58;;;;;;;2.25;1.70;;;;;;;-2.18;98.41;98163.25;5093452;28;20044;-76
2022/01/06 05:14:24;;;;;;;1.85;1.13;;;;;;;-2.16;99.18;98171.88;5093581;28;20047;-76
2022/01/06 05:16:50;;;;;;;3.72;1.67;;;;;;;-2.15;98.71;98173.47;5093319;28;20073;-76
2022/01/06 05:19:15;;;;;;;5.72;1.80;;;;;;;-2.15;98.96;98171.59;5093324;28;20560;-76
2022/01/06 05:21:41;;;;;;;2.67;1.98;;;;;;;-2.15;98.33;98179.66;5092340;28;20123;-76
2022/01/06 05:24:13;;;;;;;3.63;1.73;;;;;;;-2.16;98.96;98185.28;5093562;28;20099;-76
2022/01/06 05:26:39;;;;;;;2.10;1.35;;;;;;;-2.15;98.70;98178.84;5093154;28;20040;-76
2022/01/06 05:29:09;;;;;;;3.78;2.13;;;;;;;-2.19;98.85;98185.81;5093142;28;20061;-76
2022/01/06 05:31:34;;;;;;;1.90;1.35;;;;;;;-2.24;98.09;98189.28;5092388;28;20036;-76
2022/01/06 05:34:00;;;;;;;2.47;1.38;;;;;;;-2.25;98.20;98187.66;5093011;28;20047;-76
2022/01/06 05:36:26;;;;;;;3.08;1.52;;;;;;;-2.21;98.34;98186.06;5093077;28;20051;-76
2022/01/06 05:38:51;;;;;;;2.70;1.45;;;;;;;-2.21;98.35;98185.28;5093231;28;20098;-77
2022/01/06 05:41:17;;;;;;;5.00;1.92;;;;;;;-2.21;98.13;98183.41;5093260;28;20039;-76
2022/01/06 05:43:42;;;;;;;3.20;1.77;;;;;;;-2.24;97.75;98191.97;5092866;28;20039;-75
2022/01/06 05:46:08;;;;;;;3.05;1.58;;;;;;;-2.22;97.69;98184.47;5092966;28;20067;-75
2022/01/06 05:48:33;;;;;;;2.95;1.63;;;;;;;-2.24;97.52;98186.59;5092076;28;20104;-76
2022/01/06 05:50:59;;;;;;;2.15;1.30;;;;;;;-2.26;97.92;98177.16;5092604;28;20040;-76
2022/01/06 05:53:25;;;;;;;1.17;0.70;;;;;;;-2.25;97.65;98184.19;5092627;28;20108;-76
2022/01/06 05:55:51;;;;;;;2.22;1.48;;;;;;;-2.22;97.12;98178.28;5092754;28;20559;-76
2022/01/06 05:58:16;;;;;;;4.68;1.90;;;;;;;-2.21;96.82;98183.41;5092368;28;20040;-75
2022/01/06 06:00:42;;;;;;;2.58;1.52;;;;;;;-2.17;96.89;98181.81;5092356;28;20044;-77
2022/01/06 06:03:08;;;;;;;2.85;1.92;;;;;;;-2.15;97.16;98179.66;5092267;28;20044;-75
2022/01/06 06:05:34;;;;;;;1.83;1.42;;;;;;;-2.16;96.99;98182.59;5092427;28;20040;-76
2022/01/06 06:07:59;;;;;;;2.90;1.60;;;;;;;-2.19;97.39;98183.13;5092558;28;20405;-76
2022/01/06 06:10:25;;;;;;;2.03;1.52;;;;;;;-2.17;97.07;98197.13;5092782;28;20169;-76
2022/01/06 06:12:52;;;;;;;2.67;1.63;;;;;;;-2.16;97.11;98194.16;5092509;28;20486;-76
2022/01/06 06:15:20;;;;;;;2.30;2.08;;;;;;;-2.14;96.11;98199.28;5074692;28;20047;-76
2022/01/06 06:17:45;;;;;;;4.72;1.85;;;;;;;-2.15;96.57;98195.78;5092444;28;20533;-75
2022/01/06 06:20:11;;;;;;;5.82;1.95;;;;;;;-2.12;96.29;98199.81;5092407;28;20063;-77
2022/01/06 06:22:37;;;;;;;2.85;1.60;;;;;;;-2.12;96.51;98197.94;5092436;28;20070;-77
2022/01/06 06:25:04;;;;;;;3.28;1.83;;;;;;;-2.10;96.55;98200.38;5092522;28;20032;-75
2022/01/06 06:27:30;;;;;;;4.88;1.95;;;;;;;-2.09;96.53;98193.13;5092528;28;20043;-77
2022/01/06 06:29:55;;;;;;;5.85;2.50;;;;;;;-2.08;96.60;98194.72;5092102;28;20040;-77
2022/01/06 06:32:21;;;;;;;6.00;2.25;;;;;;;-2.06;96.40;98204.19;5092301;28;20097;-77
2022/01/06 06:34:46;;;;;;;6.82;2.20;;;;;;;-2.07;96.20;98212.50;5091856;28;20087;-77
2022/01/06 06:37:12;;;;;;;4.35;2.30;;;;;;;-2.06;96.49;98209.56;5092078;28;20032;-77
2022/01/06 06:39:37;;;;;;;4.95;2.33;;;;;;;-2.05;96.21;98213.06;5092238;28;20521;-77
2022/01/06 06:42:03;;;;;;;3.65;2.08;;;;;;;-2.04;96.33;98211.97;5092120;28;20040;-77
2022/01/06 06:44:29;;;;;;;2.78;1.98;;;;;;;-2.04;96.42;98217.34;5092129;28;20448;-77
2022/01/06 06:46:54;;;;;;;6.07;2.40;;;;;;;-2.03;96.48;98222.47;5091662;28;20036;-77
2022/01/06 06:49:20;;;;;;;3.67;1.90;;;;;;;-2.05;96.21;98224.59;5091672;28;20040;-77
2022/01/06 06:51:46;;;;;;;4.38;1.88;;;;;;;-2.09;96.16;98226.16;5091568;28;20391;-77
2022/01/06 06:54:13;;;;;;;5.55;2.33;;;;;;;-2.14;95.70;98232.31;5092044;28;20181;-77
2022/01/06 06:56:43;;;;;;;6.03;2.15;;;;;;;-2.19;96.32;98229.59;5091785;28;20039;-77
2022/01/06 06:59:08;;;;;;;;;;;;;;;-2.20;96.13;98238.72;5092059;28;20036;-77
2022/01/06 07:01:34;;;;;;;5.68;2.88;;;;;;;-2.23;95.67;98243.81;5091558;28;19927;-77
2022/01/06 07:03:59;;;;;;;5.65;2.30;;;;;;;-2.28;95.22;98239.19;5090273;28;20043;-77
2022/01/06 07:06:25;;;;;;;4.50;2.10;;;;;;;-2.29;95.40;98234.88;5091602;28;20035;-77
2022/01/06 07:08:50;;;;;;;4.97;2.50;;;;;;;-2.28;95.64;98230.31;5091759;28;20123;-77
2022/01/06 07:11:16;;;;;;;6.28;2.95;;;;;;;-2.28;95.38;98238.38;5091305;28;20036;-77
2022/01/06 07:13:42;;;;;;;4.15;2.15;;;;;;;-2.29;94.93;98231.41;5091471;28;20127;-77
2022/01/06 07:16:07;;;;;;;4.53;1.67;;;;;;;-2.31;95.30;98244.28;5091133;28;20077;-77
2022/01/06 07:18:33;;;;;;;5.80;2.50;;;;;;;-2.31;95.27;98247.78;5091322;28;20127;-77
2022/01/06 07:20:58;;;;;;;4.88;2.15;;;;;;;-2.30;95.26;98252.06;5091053;28;20040;-77
2022/01/06 07:23:24;;;;;;;3.25;2.05;;;;;;;-2.34;94.51;98250.97;5091674;28;20441;-77
2022/01/06 07:25:50;;;;;;;2.78;1.13;;;;;;;-2.40;94.95;98245.81;5091415;28;20073;-77
2022/01/06 07:28:15;;;;;;;1.92;1.38;;;;;;;-2.48;94.67;98252.44;5091178;28;20067;-76
2022/01/06 07:30:41;;;;;;;2.47;1.33;;;;;;;-2.52;94.51;98251.34;5091176;28;20069;-76
2022/01/06 07:33:07;;;;;;;3.72;1.55;;;;;;;-2.54;94.05;98261.53;5090999;28;20035;-77
2022/01/06 07:35:32;;;;;;;2.42;1.98;;;;;;;-2.58;94.27;98263.94;5091314;28;20048;-77
2022/01/06 07:37:58;;;;;;;4.28;1.35;;;;;;;-2.61;94.62;98266.28;5072897;28;20131;-77
2022/01/06 07:40:24;;;;;;;3.58;1.90;;;;;;;-2.64;94.43;98262.25;5091113;28;20068;-76
2022/01/06 07:42:50;;;;;;;4.35;2.03;;;;;;;-2.63;94.41;98265.72;5090996;28;20035;-76
2022/01/06 07:45:16;;;;;;;2.63;1.70;;;;;;;-2.61;94.65;98263.59;5090539;28;20502;-77
2022/01/06 07:47:59;;;;;;;3.67;2.10;;;;;;;-2.56;94.84;98258.31;5073093;28;20402;-76
2022/01/06 07:50:27;;;;;;;3.72;1.80;;;;;;;-2.57;94.94;98262.88;5090959;28;20458;-76
2022/01/06 07:52:53;;;;;;;3.73;1.77;;;;;;;-2.60;95.16;98260.69;5090984;28;20040;-76
2022/01/06 07:55:19;;;;;;;2.42;1.45;;;;;;;-2.62;95.48;98267.34;5091106;28;20343;-77
2022/01/06 07:57:44;;;;;;;2.33;1.20;;;;;;;-2.65;94.91;98270.53;5091241;28;20549;-76
2022/01/06 08:00:10;;;;;;;2.22;1.40;;;;;;;-2.69;94.95;98269.44;5090726;28;20040;-76
2022/01/06 08:02:39;;;;;;;0.13;0.13;;;;;;;-2.74;95.07;98267.53;5090810;28;20119;-76
2022/01/06 08:05:08;;;;;;;0.93;0.65;;;;;;;-2.77;94.85;98273.41;5090780;28;20135;-76
2022/01/06 08:07:34;;;;;;;2.13;1.50;;;;;;;-2.78;94.85;98272.59;5089634;28;20032;-76
2022/01/06 08:10:00;;;;;;;2.38;1.63;;;;;;;-2.80;94.33;98268.50;5090409;28;20043;-76
2022/01/06 08:12:25;;;;;;;3.67;1.85;;;;;;;-2.80;94.79;98268.50;5091100;28;20047;-76
2022/01/06 08:14:51;;;;;;;4.72;1.92;;;;;;;-2.77;94.98;98273.41;5090780;28;20044;-76
2022/01/06 08:17:16;;;;;;;1.25;1.00;;;;;;;-2.75;94.80;98272.09;5090959;28;20145;-76
2022/01/06 08:19:43;;;;;;;3.28;1.92;;;;;;;-2.75;94.57;98269.41;5090791;28;20059;-76
2022/01/06 08:22:09;;;;;;;2.63;2.15;;;;;;;-2.72;94.99;98275.31;5090911;28;20097;-76
2022/01/06 08:24:34;;;;;;;4.18;2.10;;;;;;;-2.67;94.77;98280.72;5090708;28;20055;-76
2022/01/06 08:27:01;;;;;;;4.25;2.35;;;;;;;-2.62;95.20;98280.78;5090144;28;20125;-76
2022/01/06 08:29:27;;;;;;;2.22;1.70;;;;;;;-2.65;95.11;98282.09;5090380;28;20542;-76
2022/01/06 08:31:52;;;;;;;3.22;1.98;;;;;;;-2.66;95.35;98279.66;5090496;28;20115;-77
2022/01/06 08:34:18;;;;;;;2.72;1.90;;;;;;;-2.64;95.07;98282.91;5090698;28;20063;-77
2022/01/06 08:36:43;;;;;;;2.40;1.80;;;;;;;-2.63;95.00;98289.91;5090867;28;20040;-77
2022/01/06 08:39:09;;;;;;;2.13;1.55;;;;;;;-2.61;95.44;98290.44;5090277;28;20046;-77
2022/01/06 08:41:35;;;;;;;2.97;2.08;;;;;;;-2.62;95.48;98294.19;5090783;28;20040;-77
2022/01/06 08:44:00;;;;;;;4.00;2.10;;;;;;;-2.64;95.31;98299.00;5090551;28;20039;-77
2022/01/06 08:46:26;;;;;;;4.68;2.00;;;;;;;-2.65;95.35;98305.44;5072727;28;20047;-77
2022/01/06 08:48:51;;;;;;;3.03;1.88;;;;;;;-2.63;95.11;98301.44;5090353;28;20086;-77
2022/01/06 08:51:18;;;;;;;1.92;1.40;;;;;;;-2.66;95.25;98309.19;5090390;28;20486;-77
2022/01/06 08:53:44;;;;;;;3.33;1.80;;;;;;;-2.68;95.49;98306.75;5090811;28;20044;-76
2022/01/06 08:56:09;;;;;;;3.50;2.05;;;;;;;-2.66;95.68;98312.69;5090274;28;20462;-76
2022/01/06 08:58:35;;;;;;;3.50;1.70;;;;;;;-2.63;95.66;98308.69;5092428;28;20048;-76
2022/01/06 09:01:00;;;;;;;3.38;2.30;;;;;;;-2.65;95.42;98313.50;5093781;28;20040;-77
2022/01/06 09:03:26;;;;;;;3.67;2.17;;;;;;;-2.66;95.68;98318.06;5094077;28;20036;-76
2022/01/06 09:05:51;;;;;;;3.72;2.25;;;;;;;-2.62;95.46;98318.34;5093567;28;20067;-76
2022/01/06 09:08:17;;;;;;;3.55;2.38;;;;;;;-2.59;95.90;98318.69;5093477;28;20048;-76
2022/01/06 09:10:43;;;;;;;5.65;2.85;;;;;;;-2.53;95.99;98314.16;5093727;28;20044;-76
2022/01/06 09:13:08;;;;;;;3.42;2.33;;;;;;;-2.53;96.06;98320.34;5093574;28;20562;-76
2022/01/06 09:15:34;;;;;;;4.88;2.60;;;;;;;-2.51;95.96;98328.16;5093690;28;20032;-76
2022/01/06 09:17:59;;;;;;;2.85;2.08;;;;;;;-2.51;96.21;98326.28;5093668;28;20131;-76
2022/01/06 09:20:25;;;;;;;4.38;2.28;;;;;;;-2.49;96.38;98320.66;5093578;28;20394;-76
2022/01/06 09:22:51;;;;;;;3.45;2.10;;;;;;;-2.48;96.43;98323.06;5093699;28;20117;-76
2022/01/06 09:25:17;;;;;;;3.38;2.03;;;;;;;-2.42;96.54;98325.84;5075553;28;20036;-76
2022/01/06 09:27:43;;;;;;;2.13;1.92;;;;;;;-2.41;96.29;98325.56;5093696;28;20615;-76
2022/01/06 09:30:09;;;;;;;6.53;2.17;;;;;;;-2.40;96.39;98337.94;5093373;28;20044;-76
2022/01/06 09:32:36;;;;;;;3.58;1.52;;;;;;;-2.40;96.34;98345.19;5093485;28;20127;-76
2022/01/06 09:35:01;;;;;;;3.50;2.03;;;;;;;-2.42;96.51;98345.44;5092899;28;20410;-76
2022/01/06 09:37:27;;;;;;;2.95;2.00;;;;;;;-2.45;96.74;98341.38;5093664;28;20032;-76
2022/01/06 09:39:53;;;;;;;3.13;1.65;;;;;;;-2.49;96.35;98339.44;5093070;28;20111;-76
2022/01/06 09:42:19;;;;;;;3.53;2.08;;;;;;;-2.51;96.04;98345.06;5091935;28;20526;-76
2022/01/06 09:44:47;;;;;;;4.13;2.40;;;;;;;-2.48;96.53;98343.75;5091895;28;20552;-76
2022/01/06 09:47:13;;;;;;;4.95;2.50;;;;;;;-2.50;96.64;98348.56;5093087;28;20127;-76
2022/01/06 09:49:42;;;;;;;2.67;2.35;;;;;;;-2.54;96.48;98342.91;5092859;28;20138;-76
2022/01/06 09:52:08;;;;;;;4.97;2.25;;;;;;;-2.57;96.01;98358.69;5092722;28;20212;-76
2022/01/06 09:54:35;;;;;;;4.95;2.50;;;;;;;-2.62;96.19;98353.25;5091675;28;20040;-77
2022/01/06 09:57:00;;;;;;;7.57;2.55;;;;;;;-2.66;96.24;98354.81;5092711;28;20032;-76
2022/01/06 09:59:26;;;;;;;3.88;2.08;;;;;;;-2.70;96.16;98356.41;5093012;28;20105;-76
2022/01/06 10:01:52;;;;;;;3.22;2.03;;;;;;;-2.71;95.49;98357.47;5093049;28;20039;-76
2022/01/06 10:04:25;;;;;;;6.85;2.33;;;;;;;-2.65;96.35;98361.81;5092467;28;20070;-76
2022/01/06 10:07:05;;;;;;;4.28;2.20;;;;;;;-2.68;95.95;98362.31;5091438;28;20498;-75
2022/01/06 10:09:35;;;;;;;3.25;1.98;;;;;;;-2.69;96.34;98360.72;5091952;28;20048;-78
2022/01/06 10:12:10;;;;;;;3.17;2.05;;;;;;;-2.70;95.82;98370.63;5092259;28;20494;-78
2022/01/06 10:14:42;;;;;;;4.03;2.60;;;;;;;-2.71;96.36;98370.88;5092786;28;20044;-77
2022/01/06 10:17:09;;;;;;;3.15;1.83;;;;;;;-2.74;96.22;98373.00;5092321;28;20036;-77
2022/01/06 10:19:42;;;;;;;3.42;2.30;;;;;;;-2.76;95.80;98377.00;5092399;28;20052;-76
2022/01/06 10:22:19;;;;;;;3.63;2.08;;;;;;;-2.77;95.71;98381.56;5092415;28;20040;-76
2022/01/06 10:24:47;;;;;;;2.40;2.00;;;;;;;-2.77;95.61;98384.25;5092382;28;20513;-77
2022/01/06 10:27:14;;;;;;;7.35;2.85;;;;;;;-2.77;95.45;98394.19;5073880;28;20089;-75
2022/01/06 10:29:42;;;;;;;3.60;2.28;;;;;;;-2.80;95.94;98400.03;5092128;28;20039;-76
2022/01/06 10:32:13;;;;;;;3.83;1.98;;;;;;;-2.81;95.35;98391.16;5092327;28;20169;-76
2022/01/06 10:34:44;;;;;;;6.10;2.13;;;;;;;-2.86;95.92;98396.47;5092337;28;20040;-76
2022/01/06 10:37:42;;;;;;;4.18;2.47;;;;;;;-2.89;95.60;98398.84;5091971;28;20154;-75
2022/01/06 10:40:11;;;;;;;5.55;2.70;;;;;;;-2.88;95.54;98405.84;5040948;28;20615;-78
2022/01/06 10:42:39;;;;;;;3.92;2.42;;;;;;;-2.88;95.33;98403.97;5091105;28;20065;-75
2022/01/06 10:45:13;;;;;;;4.95;2.30;;;;;;;-2.87;95.33;98404.78;5073527;28;20557;-76
2022/01/06 10:47:42;;;;;;;6.28;3.13;;;;;;;-2.86;95.16;98409.06;5090851;28;20052;-76
2022/01/06 10:50:12;;;;;;;3.67;2.35;;;;;;;-2.86;95.08;98417.94;5091624;28;20036;-78
2022/01/06 10:52:40;;;;;;;5.03;2.50;;;;;;;-2.87;95.26;98419.00;5091882;28;20040;-76
2022/01/06 10:55:13;;;;;;;6.45;3.15;;;;;;;-2.85;94.87;98426.81;5091627;28;20052;-78
2022/01/06 10:57:52;;;;;;;3.90;2.28;;;;;;;-2.84;95.11;98431.09;5091364;28;20036;-77
2022/01/06 11:00:18;;;;;;;;;;;;;;;-2.83;95.55;98433.53;5091850;28;20044;-78
2022/01/06 11:02:43;;;;;;;4.85;2.35;;;;;;;-2.83;95.48;98430.03;5091532;28;19923;-77
2022/01/06 11:05:09;;;;;;;3.65;2.15;;;;;;;-2.84;95.66;98429.22;5091682;28;20096;-78
2022/01/06 11:07:35;;;;;;;5.75;2.47;;;;;;;-2.84;95.49;98429.22;5091469;28;20044;-77
2022/01/06 11:10:13;;;;;;;3.88;2.47;;;;;;;-2.82;95.39;98431.66;5091498;28;20051;-77
2022/01/06 11:12:39;;;;;;;4.07;2.35;;;;;;;-2.85;95.16;98435.66;5090263;28;20047;-77
2022/01/06 11:15:05;;;;;;;3.90;2.30;;;;;;;-2.88;95.53;98432.66;5091191;28;20039;-78
2022/01/06 11:17:30;;;;;;;3.50;2.10;;;;;;;-2.87;95.28;98442.34;5091538;28;20044;-77
2022/01/06 11:19:56;;;;;;;4.85;2.88;;;;;;;-2.86;95.21;98441.28;5089092;28;20505;-77
2022/01/06 11:22:24;;;;;;;3.65;1.70;;;;;;;-2.89;95.25;98442.59;5089971;28;20577;-76
2022/01/06 11:24:54;;;;;;;2.97;2.03;;;;;;;-2.90;95.84;98440.16;5091326;28;20028;-76
2022/01/06 11:27:33;;;;;;;5.50;2.50;;;;;;;-2.94;95.94;98439.84;5091093;28;20417;-78
2022/01/06 11:30:15;;;;;;;4.28;2.45;;;;;;;-2.99;95.32;98442.44;5089781;28;20039;-76
2022/01/06 11:32:42;;;;;;;5.43;3.03;;;;;;;-3.00;95.31;98434.63;5091455;28;20115;-76
2022/01/06 11:35:11;;;;;;;3.40;2.38;;;;;;;-3.00;95.54;98435.44;5091026;28;20121;-78
2022/01/06 11:37:48;;;;;;;4.00;2.30;;;;;;;-2.96;94.87;98433.88;5073116;28;20044;-78
2022/01/06 11:40:17;;;;;;;3.50;2.17;;;;;;;-2.96;95.30;98446.50;5091108;28;20028;-75